createdAt,value
2022-08-05T00:02:11.399Z,98603.17
2022-08-05T00:04:46.348Z,98603.77
2022-08-05T00:08:00.026Z,98603.34
2022-08-05T00:10:27.101Z,98605.37
2022-08-05T00:13:01.325Z,98608.08
2022-08-05T00:15:58.012Z,98606.39
2022-08-05T00:18:28.024Z,98608.37
2022-08-05T00:21:01.322Z,98604.70
2022-08-05T00:23:45.956Z,98600.36
2022-08-05T00:26:22.556Z,98599.39
2022-08-05T00:28:55.626Z,98598.40
2022-08-05T00:31:53.254Z,98595.11
2022-08-05T00:34:55.263Z,98590.60
2022-08-05T00:37:15.338Z,98593.36
2022-08-05T00:39:58.325Z,98588.70
2022-08-05T00:42:37.909Z,98588.45
2022-08-05T00:45:13.587Z,98588.69
2022-08-05T00:47:57.128Z,98594.63
2022-08-05T00:50:38.039Z,98589.77
2022-08-05T00:54:00.110Z,98590.75
2022-08-05T00:56:07.819Z,98585.52
2022-08-05T00:58:42.491Z,98587.36
2022-08-05T01:01:42.098Z,98585.33
2022-08-05T01:04:13.886Z,98584.17
2022-08-05T01:06:48.979Z,98586.54
2022-08-05T01:09:24.984Z,98581.64
2022-08-05T01:12:17.973Z,98577.09
2022-08-05T01:14:56.669Z,98572.01
2022-08-05T01:17:39.905Z,98575.97
2022-08-05T01:20:26.974Z,98573.39
2022-08-05T01:23:14.267Z,98569.20
2022-08-05T01:26:08.402Z,98566.95
2022-08-05T01:28:47.438Z,98562.73
2022-08-05T01:31:31.081Z,98564.52
2022-08-05T01:34:06.948Z,98559.42
2022-08-05T01:36:47.647Z,98557.52
2022-08-05T01:39:46.703Z,98558.77
2022-08-05T01:42:17.646Z,98556.52
2022-08-05T01:44:54.109Z,98554.98
2022-08-05T01:47:38.802Z,98554.31
2022-08-05T01:50:16.009Z,98549.74
2022-08-05T01:52:50.686Z,98551.36
2022-08-05T01:55:24.576Z,98549.11
2022-08-05T01:58:09.266Z,98550.04
2022-08-05T02:00:52.145Z,98551.51
2022-08-05T02:03:31.911Z,98547.52
2022-08-05T02:06:23.972Z,98547.50
2022-08-05T02:09:03.755Z,98545.43
2022-08-05T02:11:47.868Z,98544.59
2022-08-05T02:14:32.251Z,98540.05
2022-08-05T02:17:08.492Z,98534.48
2022-08-05T02:20:03.720Z,98535.93
2022-08-05T02:22:40.857Z,98534.56
2022-08-05T02:25:18.418Z,98534.77
2022-08-05T02:27:58.250Z,98534.59
2022-08-05T02:30:37.285Z,98537.80
2022-08-05T02:33:36.108Z,98534.52
2022-08-05T02:36:15.642Z,98533.53
2022-08-05T02:38:53.623Z,98534.98
2022-08-05T02:41:42.964Z,98531.83
2022-08-05T02:44:21.874Z,98531.66
2022-08-05T02:47:00.379Z,98529.56
2022-08-05T02:49:37.969Z,98531.02
2022-08-05T02:52:29.952Z,98526.98
2022-08-05T02:55:10.744Z,98526.35
2022-08-05T02:58:11.378Z,98526.73
2022-08-05T03:00:41.162Z,98527.27
2022-08-05T03:03:20.992Z,98526.09
2022-08-05T03:06:57.244Z,98530.02
2022-08-05T03:08:52.165Z,98529.36
2022-08-05T03:11:57.378Z,98529.89
2022-08-05T03:14:17.910Z,98530.23
2022-08-05T03:16:53.505Z,98525.30
2022-08-05T03:19:34.579Z,98524.23
2022-08-05T03:22:16.008Z,98523.20
2022-08-05T03:24:53.388Z,98520.95
2022-08-05T03:27:29.824Z,98519.08
2022-08-05T03:30:14.004Z,98518.56
2022-08-05T03:32:47.241Z,98524.77
2022-08-05T03:35:20.228Z,98524.43
2022-08-05T03:37:53.780Z,98520.85
2022-08-05T03:40:31.805Z,98522.77
2022-08-05T03:43:59.052Z,98518.63
2022-08-05T03:46:00.501Z,98519.90
2022-08-05T03:48:35.382Z,98522.23
2022-08-05T03:52:39.331Z,98519.66
2022-08-05T03:56:03.888Z,98521.87
2022-08-05T03:57:16.619Z,98524.25
2022-08-05T03:59:56.751Z,98520.45
2022-08-05T04:02:38.344Z,98519.29
2022-08-05T04:05:13.301Z,98522.73
2022-08-05T04:07:58.343Z,98518.94
2022-08-05T04:10:37.683Z,98523.95
2022-08-05T04:13:11.540Z,98522.09
2022-08-05T04:16:03.281Z,98521.46
2022-08-05T04:18:38.100Z,98522.70
2022-08-05T04:21:12.695Z,98524.66
2022-08-05T04:24:09.121Z,98528.52
2022-08-05T04:26:52.347Z,98532.70
2022-08-05T04:29:25.057Z,98525.41
2022-08-05T04:32:00.295Z,98523.77
2022-08-05T04:34:36.621Z,98522.33
2022-08-05T04:37:15.999Z,98518.02
2022-08-05T04:39:52.831Z,98513.36
2022-08-05T04:42:25.574Z,98510.59
2022-08-05T04:44:58.931Z,98509.80
2022-08-05T04:47:38.590Z,98512.87
2022-08-05T04:50:15.487Z,98510.48
2022-08-05T04:53:10.941Z,98506.23
2022-08-05T04:56:15.147Z,98507.00
2022-08-05T04:58:37.039Z,98500.41
2022-08-05T05:01:10.255Z,98500.58
2022-08-05T05:03:44.127Z,98502.56
2022-08-05T05:06:39.694Z,98503.62
2022-08-05T05:09:17.529Z,98503.23
2022-08-05T05:11:55.473Z,98503.08
2022-08-05T05:14:31.865Z,98508.17
2022-08-05T05:17:07.346Z,98500.83
2022-08-05T05:19:44.190Z,98506.61
2022-08-05T05:22:23.740Z,98505.73
2022-08-05T05:25:15.992Z,98502.52
2022-08-05T05:27:54.042Z,98505.55
2022-08-05T05:30:30.774Z,98504.67
2022-08-05T05:33:16.591Z,98506.42
2022-08-05T05:35:49.790Z,98507.35
2022-08-05T05:38:27.490Z,98506.91
2022-08-05T05:41:00.418Z,98507.52
2022-08-05T05:43:56.551Z,98511.02
2022-08-05T05:46:27.321Z,98511.49
2022-08-05T05:49:00.099Z,98513.52
2022-08-05T05:51:49.711Z,98513.13
2022-08-05T05:54:22.502Z,98511.26
2022-08-05T05:57:23.382Z,98508.09
2022-08-05T05:59:56.192Z,98508.83
2022-08-05T06:02:37.394Z,98513.63
2022-08-05T06:05:16.719Z,98511.10
2022-08-05T06:07:57.854Z,98505.73
2022-08-05T06:10:49.110Z,98503.13
2022-08-05T06:13:28.549Z,98502.19
2022-08-05T06:16:38.358Z,98504.17
2022-08-05T06:19:37.707Z,98503.40
2022-08-05T06:26:12.620Z,98504.07
2022-08-05T06:28:31.319Z,98500.88
2022-08-05T06:31:11.120Z,98504.04
2022-08-05T06:34:26.534Z,98499.39
2022-08-05T06:40:32.381Z,98499.35
2022-08-05T06:43:05.235Z,98499.03
2022-08-05T06:46:06.785Z,98499.72
2022-08-05T06:48:55.841Z,98498.83
2022-08-05T06:51:30.765Z,98500.70
2022-08-05T06:54:05.031Z,98497.95
2022-08-05T06:56:37.646Z,98496.25
2022-08-05T06:59:12.774Z,98498.31
2022-08-05T07:01:48.052Z,98495.63
2022-08-05T07:04:25.448Z,98492.92
2022-08-05T07:06:58.522Z,98491.11
2022-08-05T07:09:32.527Z,98491.58
2022-08-05T07:12:34.658Z,98489.84
2022-08-05T07:16:00.885Z,98491.44
2022-08-05T07:18:30.098Z,98486.20
2022-08-05T07:21:05.775Z,98485.99
2022-08-05T07:23:49.126Z,98480.53
2022-08-05T07:26:24.916Z,98481.83
2022-08-05T07:28:59.844Z,98485.30
2022-08-05T07:31:53.908Z,98488.59
2022-08-05T07:34:28.537Z,98485.87
2022-08-05T07:37:01.446Z,98486.24
2022-08-05T07:40:26.705Z,98478.91
2022-08-05T07:42:33.549Z,98480.80
2022-08-05T07:45:11.949Z,98479.50
2022-08-05T07:47:45.347Z,98479.95
2022-08-05T07:50:18.050Z,98481.10
2022-08-05T07:52:54.021Z,98474.97
2022-08-05T07:56:05.831Z,98475.86
2022-08-05T07:58:54.946Z,98472.05
2022-08-05T08:01:14.646Z,98471.02
2022-08-05T08:03:48.780Z,98471.29
2022-08-05T08:06:28.249Z,98476.14
2022-08-05T08:09:01.984Z,98472.71
2022-08-05T08:11:47.054Z,98476.13
2022-08-05T08:14:21.445Z,98477.13
2022-08-05T08:16:54.295Z,98475.98
2022-08-05T08:20:21.241Z,98474.05
2022-08-05T08:22:20.415Z,98480.69
2022-08-05T08:24:55.719Z,98480.24
2022-08-05T08:27:45.246Z,98478.29
2022-08-05T08:30:34.145Z,98478.19
2022-08-05T08:33:14.472Z,98472.33
2022-08-05T08:35:52.674Z,98475.17
2022-08-05T08:38:35.718Z,98476.20
2022-08-05T08:41:14.159Z,98476.23
2022-08-05T08:45:20.484Z,98474.30
2022-08-05T08:46:41.208Z,98473.20
2022-08-05T08:50:22.915Z,98477.61
2022-08-05T08:52:16.206Z,98474.95
2022-08-05T08:54:48.358Z,98474.61
2022-08-05T08:57:20.836Z,98473.20
2022-08-05T08:59:56.121Z,98472.89
2022-08-05T09:02:28.845Z,98476.96
2022-08-05T09:05:17.520Z,98475.00
2022-08-05T09:07:57.579Z,98473.08
2022-08-05T09:10:32.730Z,98475.42
2022-08-05T09:13:06.664Z,98471.88
2022-08-05T09:15:41.791Z,98473.98
2022-08-05T09:18:16.201Z,98470.20
2022-08-05T09:20:51.560Z,98465.12
2022-08-05T09:23:23.648Z,98463.00
2022-08-05T09:26:11.568Z,98456.52
2022-08-05T09:28:53.737Z,98456.64
2022-08-05T09:32:40.147Z,98453.70
2022-08-05T09:34:21.054Z,98443.14
2022-08-05T09:36:59.428Z,98445.21
2022-08-05T09:39:45.788Z,98436.75
2022-08-05T09:42:28.107Z,98432.81
2022-08-05T09:46:05.132Z,98430.05
2022-08-05T09:48:02.670Z,98432.97
2022-08-05T09:50:44.680Z,98437.63
2022-08-05T09:53:26.117Z,98433.89
2022-08-05T09:56:13.099Z,98429.61
2022-08-05T09:58:59.328Z,98430.63
2022-08-05T10:01:33.673Z,98426.68
2022-08-05T10:04:10.488Z,98426.60
2022-08-05T10:06:49.963Z,98424.89
2022-08-05T10:09:30.217Z,98422.81
2022-08-05T10:12:33.254Z,98421.98
2022-08-05T10:15:20.018Z,98420.10
2022-08-05T10:18:09.400Z,98418.41
2022-08-05T10:20:47.706Z,98414.71
2022-08-05T10:23:55.465Z,98409.13
2022-08-05T10:26:15.502Z,98410.08
2022-08-05T10:28:49.437Z,98412.11
2022-08-05T10:32:54.070Z,98410.98
2022-08-05T10:34:25.585Z,98407.16
2022-08-05T10:37:00.801Z,98403.75
2022-08-05T10:39:59.005Z,98400.13
2022-08-05T10:42:33.401Z,98398.99
2022-08-05T10:45:21.284Z,98399.73
2022-08-05T10:48:30.176Z,98399.95
2022-08-05T10:51:04.281Z,98399.11
2022-08-05T10:53:38.927Z,98393.92
2022-08-05T10:56:25.125Z,98393.44
2022-08-05T10:59:12.484Z,98393.94
2022-08-05T11:05:19.687Z,98394.52
2022-08-05T11:08:03.226Z,98394.33
2022-08-05T11:10:50.420Z,98392.67
2022-08-05T11:13:54.784Z,98388.02
2022-08-05T11:16:47.617Z,98387.44
2022-08-05T11:20:10.311Z,98383.00
2022-08-05T11:22:42.290Z,98385.23
2022-08-05T11:26:05.068Z,98384.45
2022-08-05T11:28:44.378Z,98378.09
2022-08-05T11:31:57.235Z,98376.05
2022-08-05T11:34:47.599Z,98377.10
2022-08-05T11:38:26.164Z,98372.77
2022-08-05T11:41:15.429Z,98371.92
2022-08-05T11:44:06.534Z,98374.52
2022-08-05T11:47:10.350Z,98375.19
2022-08-05T11:49:38.322Z,98373.52
2022-08-05T11:52:14.707Z,98370.92
2022-08-05T11:54:56.260Z,98376.35
2022-08-05T11:58:08.610Z,98377.13
2022-08-05T12:00:32.672Z,98371.36
2022-08-05T12:03:29.194Z,98370.55
2022-08-05T12:06:09.760Z,98372.98
2022-08-05T12:08:49.895Z,98370.17
2022-08-05T12:11:28.398Z,98368.73
2022-08-05T12:14:14.887Z,98369.73
2022-08-05T12:16:50.368Z,98362.11
2022-08-05T12:20:26.325Z,98357.92
2022-08-05T12:22:22.284Z,98357.73
2022-08-05T12:24:58.423Z,98360.77
2022-08-05T12:27:33.349Z,98351.83
2022-08-05T12:30:10.687Z,98349.68
2022-08-05T12:32:51.161Z,98347.33
2022-08-05T12:35:37.234Z,98346.92
2022-08-05T12:38:13.383Z,98345.90
2022-08-05T12:40:47.750Z,98338.16
2022-08-05T12:43:22.965Z,98335.36
2022-08-05T12:45:58.554Z,98332.83
2022-08-05T12:48:41.911Z,98332.92
2022-08-05T12:52:09.989Z,98331.65
2022-08-05T12:54:16.945Z,98330.80
2022-08-05T12:56:57.274Z,98330.64
2022-08-05T13:00:09.048Z,98328.55
2022-08-05T13:02:30.671Z,98325.43
2022-08-05T13:05:07.206Z,98325.86
2022-08-05T13:08:00.645Z,98323.91
2022-08-05T13:10:35.126Z,98321.55
2022-08-05T13:14:06.266Z,98322.26
2022-08-05T13:16:19.899Z,98320.43
2022-08-05T13:18:58.787Z,98314.39
2022-08-05T13:21:38.132Z,98316.64
2022-08-05T13:24:44.989Z,98316.61
2022-08-05T13:27:23.023Z,98311.59
2022-08-05T13:30:34.658Z,98305.73
2022-08-05T13:33:03.099Z,98302.09
2022-08-05T13:35:47.210Z,98303.17
2022-08-05T13:38:31.076Z,98302.33
2022-08-05T13:41:08.763Z,98301.48
2022-08-05T13:43:45.723Z,98296.52
2022-08-05T13:46:50.866Z,98293.05
2022-08-05T13:49:19.898Z,98291.64
2022-08-05T13:51:54.067Z,98289.38
2022-08-05T13:54:26.535Z,98294.72
2022-08-05T13:56:58.766Z,98293.17
2022-08-05T13:59:31.909Z,98294.63
2022-08-05T14:02:05.289Z,98292.34
2022-08-05T14:05:00.636Z,98287.58
2022-08-05T14:07:59.774Z,98283.90
2022-08-05T14:10:28.640Z,98280.98
2022-08-05T14:13:06.151Z,98291.78
2022-08-05T14:16:07.266Z,98280.73
2022-08-05T14:18:34.508Z,98282.80
2022-08-05T14:22:07.883Z,98282.59
2022-08-05T14:24:09.850Z,98282.24
2022-08-05T14:26:56.607Z,98281.59
2022-08-05T14:29:34.475Z,98276.10
2022-08-05T14:32:12.291Z,98274.92
2022-08-05T14:34:47.223Z,98272.39
2022-08-05T14:37:19.507Z,98266.80
2022-08-05T14:39:59.021Z,98263.64
2022-08-05T14:42:32.275Z,98266.27
2022-08-05T14:45:08.977Z,98262.73
2022-08-05T14:48:02.912Z,98257.92
2022-08-05T14:50:39.760Z,98256.41
2022-08-05T14:53:14.358Z,98255.70
2022-08-05T14:55:52.096Z,98256.30
2022-08-05T14:58:26.563Z,98257.74
2022-08-05T15:01:03.139Z,98254.81
2022-08-05T15:03:39.045Z,98254.61
2022-08-05T15:06:15.686Z,98249.44
2022-08-05T15:08:59.046Z,98250.46
2022-08-05T15:11:53.254Z,98253.44
2022-08-05T15:14:35.601Z,98250.95
2022-08-05T15:17:44.405Z,98250.70
2022-08-05T15:20:18.453Z,98251.01
2022-08-05T15:22:54.992Z,98250.15
2022-08-05T15:25:41.010Z,98242.87
2022-08-05T15:28:23.047Z,98245.52
2022-08-05T15:31:03.613Z,98244.63
2022-08-05T15:34:19.115Z,98242.25
2022-08-05T15:36:30.879Z,98234.80
2022-08-05T15:40:59.157Z,98234.36
2022-08-05T15:41:59.102Z,98231.44
2022-08-05T15:44:32.403Z,98226.33
2022-08-05T15:47:05.614Z,98229.52
2022-08-05T15:49:47.904Z,98230.20
2022-08-05T15:52:52.332Z,98229.14
2022-08-05T15:55:24.912Z,98230.71
2022-08-05T15:58:16.452Z,98229.06
2022-08-05T16:01:12.018Z,98225.93
2022-08-05T16:03:44.476Z,98222.46
2022-08-05T16:06:23.463Z,98227.50
2022-08-05T16:08:57.304Z,98227.02
2022-08-05T16:11:43.021Z,98226.17
2022-08-05T16:14:17.317Z,98220.22
2022-08-05T16:16:50.459Z,98222.55
2022-08-05T16:20:02.746Z,98221.88
2022-08-05T16:22:17.989Z,98226.19
2022-08-05T16:24:59.971Z,98226.93
2022-08-05T16:27:59.812Z,98224.14
2022-08-05T16:30:29.146Z,98218.28
2022-08-05T16:33:02.796Z,98214.77
2022-08-05T16:35:42.028Z,98216.97
2022-08-05T16:38:25.173Z,98221.01
2022-08-05T16:41:02.627Z,98218.48
2022-08-05T16:43:56.333Z,98216.67
2022-08-05T16:46:29.293Z,98215.59
2022-08-05T16:49:03.019Z,98221.16
2022-08-05T16:51:50.369Z,98225.94
2022-08-05T16:54:30.315Z,98223.14
2022-08-05T16:57:14.901Z,98219.58
2022-08-05T17:00:01.596Z,98223.40
2022-08-05T17:02:38.437Z,98221.71
2022-08-05T17:05:11.935Z,98225.54
2022-08-05T17:07:53.001Z,98225.94
2022-08-05T17:10:30.554Z,98228.48
2022-08-05T17:13:03.860Z,98226.39
2022-08-05T17:15:48.949Z,98229.63
2022-08-05T17:18:26.199Z,98228.75
2022-08-05T17:20:59.909Z,98229.54
2022-08-05T17:24:04.877Z,98231.52
2022-08-05T17:26:25.690Z,98229.28
2022-08-05T17:28:58.187Z,98231.29
2022-08-05T17:31:41.581Z,98232.64
2022-08-05T17:34:32.029Z,98235.81
2022-08-05T17:37:27.336Z,98234.27
2022-08-05T17:39:59.806Z,98240.12
2022-08-05T17:42:36.415Z,98242.56
2022-08-05T17:45:20.910Z,98243.90
2022-08-05T17:47:56.030Z,98246.72
2022-08-05T17:50:30.973Z,98253.31
2022-08-05T17:53:08.691Z,98251.61
2022-08-05T17:55:41.934Z,98248.36
2022-08-05T17:58:16.451Z,98252.64
2022-08-05T18:00:55.070Z,98252.56
2022-08-05T18:03:55.814Z,98252.99
2022-08-05T18:06:29.505Z,98253.20
2022-08-05T18:09:04.776Z,98254.89
2022-08-05T18:11:42.242Z,98254.61
2022-08-05T18:14:20.620Z,98255.98
2022-08-05T18:16:53.604Z,98256.70
2022-08-05T18:19:25.980Z,98256.13
2022-08-05T18:22:08.864Z,98258.52
2022-08-05T18:24:43.891Z,98260.48
2022-08-05T18:27:18.872Z,98266.42
2022-08-05T18:29:54.786Z,98273.88
2022-08-05T18:32:28.425Z,98272.16
2022-08-05T18:35:03.122Z,98276.33
2022-08-05T18:37:40.352Z,98281.20
2022-08-05T18:41:52.671Z,98280.52
2022-08-05T18:43:09.039Z,98282.13
2022-08-05T18:45:49.738Z,98283.77
2022-08-05T18:48:31.585Z,98286.13
2022-08-05T18:52:02.897Z,98287.13
2022-08-05T18:54:15.801Z,98289.36
2022-08-05T18:56:51.168Z,98289.24
2022-08-05T18:59:44.143Z,98290.94
2022-08-05T19:02:27.246Z,98294.45
2022-08-05T19:06:05.575Z,98294.18
2022-08-05T19:07:56.336Z,98293.45
2022-08-05T19:10:32.310Z,98291.34
2022-08-05T19:13:12.279Z,98292.92
2022-08-05T19:15:58.740Z,98293.83
2022-08-05T19:18:35.623Z,98293.83
2022-08-05T19:21:13.100Z,98299.00
2022-08-05T19:24:07.209Z,98298.98
2022-08-05T19:26:55.009Z,98300.09
2022-08-05T19:29:36.302Z,98305.64
2022-08-05T19:32:11.718Z,98308.31
2022-08-05T19:34:55.242Z,98309.32
2022-08-05T19:37:35.060Z,98311.08
2022-08-05T19:40:24.292Z,98315.46
2022-08-05T19:43:05.409Z,98317.35
2022-08-05T19:45:39.313Z,98317.02
2022-08-05T19:48:27.560Z,98316.45
2022-08-05T19:51:01.426Z,98316.30
2022-08-05T19:54:04.707Z,98311.83
2022-08-05T19:56:32.503Z,98310.27
2022-08-05T19:59:53.746Z,98308.89
2022-08-05T20:02:03.841Z,98307.36
2022-08-05T20:04:36.938Z,98311.21
2022-08-05T20:07:13.430Z,98316.93
2022-08-05T20:09:54.503Z,98313.71
2022-08-05T20:12:29.741Z,98311.83
2022-08-05T20:15:05.802Z,98314.39
2022-08-05T20:17:41.753Z,98319.23
2022-08-05T20:20:16.266Z,98321.64
2022-08-05T20:22:48.719Z,98323.64
2022-08-05T20:25:25.992Z,98316.55
2022-08-05T20:28:13.754Z,98314.45
2022-08-05T20:30:49.484Z,98313.15
2022-08-05T20:33:21.940Z,98316.60
2022-08-05T20:35:57.557Z,98316.38
2022-08-05T20:38:35.498Z,98320.75
2022-08-05T20:41:08.999Z,98320.48
2022-08-05T20:43:58.950Z,98321.15
2022-08-05T20:46:35.851Z,98321.39
2022-08-05T20:49:09.765Z,98318.80
2022-08-05T20:51:44.510Z,98320.92
2022-08-05T20:54:43.201Z,98325.61
2022-08-05T20:57:42.661Z,98331.80
2022-08-05T21:00:40.376Z,98326.56
2022-08-05T21:03:11.432Z,98328.27
2022-08-05T21:05:53.784Z,98330.80
2022-08-05T21:08:41.785Z,98333.55
2022-08-05T21:12:10.797Z,98334.73
2022-08-05T21:14:08.443Z,98336.12
2022-08-05T21:16:47.588Z,98339.73
2022-08-05T21:19:20.252Z,98341.48
2022-08-05T21:21:56.820Z,98347.02
2022-08-05T21:24:29.698Z,98349.63
2022-08-05T21:27:03.531Z,98352.63
2022-08-05T21:29:40.679Z,98349.02
2022-08-05T21:32:17.173Z,98352.59
2022-08-05T21:34:56.007Z,98356.07
2022-08-05T21:37:42.566Z,98354.09
2022-08-05T21:40:20.560Z,98355.62
2022-08-05T21:42:53.818Z,98354.22
2022-08-05T21:45:51.469Z,98355.13
2022-08-05T21:48:18.881Z,98354.19
2022-08-05T21:50:54.379Z,98356.46
2022-08-05T21:53:27.875Z,98358.30
2022-08-05T21:56:09.925Z,98356.21
2022-08-05T21:58:57.568Z,98356.41
2022-08-05T22:01:35.493Z,98353.55
2022-08-05T22:04:13.514Z,98360.81
2022-08-05T22:06:50.255Z,98359.55
2022-08-05T22:09:23.686Z,98368.27
2022-08-05T22:12:18.105Z,98363.48
2022-08-05T22:14:59.499Z,98361.95
2022-08-05T22:17:32.489Z,98356.43
2022-08-05T22:20:14.933Z,98357.68
2022-08-05T22:23:15.887Z,98354.88
2022-08-05T22:26:10.453Z,98356.70
2022-08-05T22:28:44.379Z,98354.42
2022-08-05T22:31:18.461Z,98358.13
2022-08-05T22:33:58.342Z,98362.16
2022-08-05T22:36:35.000Z,98361.56
2022-08-05T22:39:12.822Z,98358.48
2022-08-05T22:42:10.230Z,98355.80
2022-08-05T22:44:38.442Z,98358.21
2022-08-05T22:47:11.181Z,98358.01
2022-08-05T22:50:19.663Z,98358.12
2022-08-05T22:52:41.190Z,98352.59
2022-08-05T22:55:19.512Z,98355.61
2022-08-05T22:57:53.461Z,98353.83
2022-08-05T23:00:26.653Z,98352.73
2022-08-05T23:03:01.216Z,98351.96
2022-08-05T23:05:36.769Z,98351.01
2022-08-05T23:08:13.321Z,98353.58
2022-08-05T23:10:46.732Z,98349.95
2022-08-05T23:13:19.675Z,98347.06
2022-08-05T23:15:53.672Z,98347.53
2022-08-05T23:18:31.289Z,98345.51
2022-08-05T23:21:05.825Z,98347.67
2022-08-05T23:23:42.477Z,98349.04
2022-08-05T23:26:15.610Z,98348.09
2022-08-05T23:28:53.797Z,98344.59
2022-08-05T23:31:26.769Z,98344.44
2022-08-05T23:34:05.217Z,98343.79
2022-08-05T23:36:41.513Z,98339.99
2022-08-05T23:39:31.988Z,98340.45
2022-08-05T23:42:14.305Z,98340.58
2022-08-05T23:44:54.450Z,98342.99
2022-08-05T23:47:28.436Z,98341.45
2022-08-05T23:50:09.760Z,98340.59
2022-08-05T23:52:49.425Z,98340.63
2022-08-05T23:55:24.622Z,98339.23
2022-08-05T23:58:03.950Z,98343.08
